Time;durP1;ratioP1;P1;durP2;ratioP2;P2;SDS_P1;SDS_P2;PMS_P1;PMS_P2;Temp;Humidity;BMP_temperature;BMP_pressure;BME280_temperature;BME280_humidity;BME280_pressure;Samples;Min_cycle;Max_cycle;Signal;HPM_P1;HPM_P2
2022/09/17 00:00:10;;;;;;;20.65;2.67;;;;;;;;;;5070856;28;20042;-61
2022/09/17 00:02:37;;;;;;;17.65;2.35;;;;;;;;;;5071252;28;20079;-61
2022/09/17 00:05:03;;;;;;;17.00;2.08;;;;;;;;;;5071083;28;20651;-61
2022/09/17 00:07:29;;;;;;;15.82;2.35;;;;;;;;;;5070262;28;20036;-61
2022/09/17 00:09:55;;;;;;;21.40;2.67;;;;;;;;;;5070415;28;20105;-61
2022/09/17 00:12:21;;;;;;;16.38;2.45;;;;;;;;;;5070926;28;20047;-61
2022/09/17 00:14:47;;;;;;;17.23;2.38;;;;;;;;;;5070735;28;20119;-61
2022/09/17 00:17:13;;;;;;;21.00;2.78;;;;;;;;;;5069166;28;20036;-61
2022/09/17 00:19:39;;;;;;;18.20;2.83;;;;;;;;;;5071052;28;20040;-61
2022/09/17 00:22:05;;;;;;;22.10;2.50;;;;;;;;;;5070598;28;20564;-61
2022/09/17 00:24:31;;;;;;;17.55;2.25;;;;;;;;;;5070905;28;20048;-61
2022/09/17 00:26:57;;;;;;;18.65;2.50;;;;;;;;;;5070870;28;20044;-61
2022/09/17 00:29:24;;;;;;;24.75;2.67;;;;;;;;;;5070352;28;20102;-61
2022/09/17 00:31:50;;;;;;;16.13;2.75;;;;;;;;;;5070624;28;20091;-61
2022/09/17 00:34:16;;;;;;;19.90;3.30;;;;;;;;;;5070694;28;20368;-61
2022/09/17 00:36:42;;;;;;;15.55;2.10;;;;;;;;;;5070032;28;20115;-61
2022/09/17 00:39:09;;;;;;;13.60;2.15;;;;;;;;;;5070505;28;20548;-61
2022/09/17 00:41:35;;;;;;;20.02;3.17;;;;;;;;;;5070773;28;20740;-61
2022/09/17 00:44:21;;;;;;;16.75;2.28;;;;;;;;;;5070349;28;20128;-61
2022/09/17 00:46:48;;;;;;;18.00;2.33;;;;;;;;;;5070291;28;20355;-61
2022/09/17 00:49:23;;;;;;;13.70;2.38;;;;;;;;;;5070576;28;20055;-61
2022/09/17 00:52:16;;;;;;;15.13;2.20;;;;;;;;;;5071822;28;20120;-61
2022/09/17 00:54:44;;;;;;;17.15;2.40;;;;;;;;;;5074000;28;20040;-61
2022/09/17 00:57:11;;;;;;;23.50;3.40;;;;;;;;;;5074761;28;20032;-61
2022/09/17 00:59:37;;;;;;;17.27;2.60;;;;;;;;;;5074378;28;20406;-61
2022/09/17 01:02:03;;;;;;;20.77;2.95;;;;;;;;;;5074716;28;20090;-61
2022/09/17 01:04:29;;;;;;;15.13;3.05;;;;;;;;;;5074675;28;20047;-61
2022/09/17 01:06:55;;;;;;;19.23;2.22;;;;;;;;;;5073938;28;20143;-61
2022/09/17 01:09:40;;;;;;;13.60;2.15;;;;;;;;;;5074024;28;20566;-61
2022/09/17 01:12:12;;;;;;;18.73;2.72;;;;;;;;;;5074429;28;20052;-61
2022/09/17 01:14:44;;;;;;;16.42;3.00;;;;;;;;;;5073831;28;20040;-61
2022/09/17 01:17:40;;;;;;;19.27;2.17;;;;;;;;;;5074274;28;20643;-61
2022/09/17 01:20:30;;;;;;;13.32;2.20;;;;;;;;;;5073518;28;20044;-61
2022/09/17 01:23:11;;;;;;;14.27;2.00;;;;;;;;;;5073821;28;20076;-61
2022/09/17 01:25:48;;;;;;;14.10;2.10;;;;;;;;;;5074121;28;20418;-61
2022/09/17 01:28:17;;;;;;;14.10;2.25;;;;;;;;;;5073566;28;20044;-61
2022/09/17 01:30:52;;;;;;;11.07;1.98;;;;;;;;;;5074104;28;20051;-61
2022/09/17 01:33:20;;;;;;;20.35;3.17;;;;;;;;;;5074018;28;20044;-61
2022/09/17 01:35:52;;;;;;;12.50;1.80;;;;;;;;;;5073413;28;20044;-61
2022/09/17 01:38:37;;;;;;;13.68;2.95;;;;;;;;;;5073714;28;20039;-61
2022/09/17 01:41:06;;;;;;;18.63;2.40;;;;;;;;;;5073830;28;20044;-61
2022/09/17 01:43:51;;;;;;;15.30;2.63;;;;;;;;;;5073374;28;20044;-61
2022/09/17 01:46:23;;;;;;;16.30;2.20;;;;;;;;;;5073724;28;20041;-61
2022/09/17 01:48:52;;;;;;;17.98;2.85;;;;;;;;;;5073725;28;20343;-61
2022/09/17 01:51:21;;;;;;;16.63;2.40;;;;;;;;;;5073377;28;20076;-61
2022/09/17 01:54:01;;;;;;;13.35;1.80;;;;;;;;;;5072192;28;20089;-61
2022/09/17 01:56:33;;;;;;;14.75;1.98;;;;;;;;;;5073114;28;20044;-61
2022/09/17 01:59:06;;;;;;;17.02;2.22;;;;;;;;;;5073113;28;20043;-61
2022/09/17 02:01:33;;;;;;;16.30;2.33;;;;;;;;;;5073560;28;20630;-61
2022/09/17 02:04:02;;;;;;;13.38;2.13;;;;;;;;;;5073480;28;20048;-61
2022/09/17 02:06:34;;;;;;;10.52;1.92;;;;;;;;;;5072824;28;20048;-61
2022/09/17 02:09:04;;;;;;;21.58;2.58;;;;;;;;;;5071631;28;20087;-61
2022/09/17 02:11:32;;;;;;;11.45;1.88;;;;;;;;;;5073302;28;20036;-61
2022/09/17 02:14:09;;;;;;;14.35;2.08;;;;;;;;;;5073031;28;20037;-61
2022/09/17 02:16:36;;;;;;;13.23;1.92;;;;;;;;;;5073139;28;20063;-61
2022/09/17 02:19:10;;;;;;;15.50;2.05;;;;;;;;;;5073004;28;20040;-61
2022/09/17 02:21:55;;;;;;;10.88;1.55;;;;;;;;;;5073014;28;20076;-61
2022/09/17 02:24:21;;;;;;;15.98;2.05;;;;;;;;;;5073142;28;20081;-61
2022/09/17 02:26:57;;;;;;;16.10;1.95;;;;;;;;;;5073028;28;20043;-61
2022/09/17 02:29:34;;;;;;;15.18;2.00;;;;;;;;;;5072425;28;20048;-61
2022/09/17 02:32:00;;;;;;;14.82;1.70;;;;;;;;;;5072552;28;20041;-61
2022/09/17 02:34:28;;;;;;;20.23;1.98;;;;;;;;;;5073000;28;20094;-61
2022/09/17 02:36:55;;;;;;;12.13;1.80;;;;;;;;;;5072231;28;20044;-61
2022/09/17 02:39:21;;;;;;;17.98;2.00;;;;;;;;;;5072927;28;20028;-61
2022/09/17 02:42:05;;;;;;;17.38;1.95;;;;;;;;;;5072887;28;20067;-61
2022/09/17 02:44:31;;;;;;;13.20;2.17;;;;;;;;;;5072425;28;20044;-61
2022/09/17 02:47:16;;;;;;;18.15;2.00;;;;;;;;;;5072377;28;20040;-61
2022/09/17 02:49:44;;;;;;;10.50;1.65;;;;;;;;;;5072215;28;20036;-61
2022/09/17 02:52:40;;;;;;;12.63;1.85;;;;;;;;;;5072589;28;20044;-61
2022/09/17 02:55:06;;;;;;;13.13;2.38;;;;;;;;;;5069867;28;20040;-61
2022/09/17 02:57:35;;;;;;;12.85;1.60;;;;;;;;;;5071905;28;20119;-61
2022/09/17 03:00:07;;;;;;;16.92;2.05;;;;;;;;;;5072119;28;20044;-61
2022/09/17 03:02:36;;;;;;;8.75;1.73;;;;;;;;;;5072139;28;20037;-61
2022/09/17 03:05:03;;;;;;;14.02;2.15;;;;;;;;;;5071785;28;20033;-61
2022/09/17 03:07:31;;;;;;;15.63;2.00;;;;;;;;;;5071926;28;20086;-61
2022/09/17 03:09:57;;;;;;;12.82;1.60;;;;;;;;;;5071801;28;20060;-61
2022/09/17 03:12:23;;;;;;;9.00;1.65;;;;;;;;;;5070319;28;20044;-61
2022/09/17 03:14:49;;;;;;;10.85;1.50;;;;;;;;;;5071526;28;20046;-61
2022/09/17 03:17:15;;;;;;;13.82;1.77;;;;;;;;;;5071907;28;20041;-61
2022/09/17 03:19:41;;;;;;;10.43;1.77;;;;;;;;;;5071511;28;20036;-61
2022/09/17 03:22:07;;;;;;;8.40;1.60;;;;;;;;;;5071997;28;20496;-61
2022/09/17 03:24:33;;;;;;;14.23;2.05;;;;;;;;;;5071954;28;20040;-61
2022/09/17 03:26:59;;;;;;;11.15;1.95;;;;;;;;;;5071090;28;20074;-61
2022/09/17 03:29:25;;;;;;;12.90;1.92;;;;;;;;;;5071783;28;20048;-61
2022/09/17 03:31:51;;;;;;;14.65;1.50;;;;;;;;;;5071752;28;20036;-61
2022/09/17 03:34:18;;;;;;;12.27;1.73;;;;;;;;;;5071413;28;20033;-61
2022/09/17 03:36:44;;;;;;;8.05;1.55;;;;;;;;;;5069922;28;20395;-61
2022/09/17 03:39:10;;;;;;;8.73;1.38;;;;;;;;;;5071430;28;20041;-61
2022/09/17 03:41:36;;;;;;;6.40;1.10;;;;;;;;;;5071242;28;20032;-61
2022/09/17 03:44:03;;;;;;;9.63;2.17;;;;;;;;;;5071518;28;20036;-61
2022/09/17 03:46:29;;;;;;;7.18;1.33;;;;;;;;;;5069942;28;20051;-61
2022/09/17 03:48:55;;;;;;;9.80;1.40;;;;;;;;;;5071106;28;20670;-61
2022/09/17 03:51:21;;;;;;;9.70;1.60;;;;;;;;;;5071022;28;20043;-61
2022/09/17 03:53:47;;;;;;;15.27;2.05;;;;;;;;;;5071505;28;20036;-61
2022/09/17 03:56:13;;;;;;;9.45;2.00;;;;;;;;;;5071010;28;20064;-61
2022/09/17 03:58:39;;;;;;;8.88;1.35;;;;;;;;;;5071150;28;20051;-61
2022/09/17 04:01:05;;;;;;;15.07;2.08;;;;;;;;;;5071472;28;20043;-61
2022/09/17 04:03:32;;;;;;;9.35;1.67;;;;;;;;;;5070791;28;20051;-61
2022/09/17 04:05:58;;;;;;;11.70;1.63;;;;;;;;;;5071099;28;20105;-61
2022/09/17 04:08:24;;;;;;;11.50;2.20;;;;;;;;;;5070914;28;20091;-61
2022/09/17 04:10:50;;;;;;;13.23;1.73;;;;;;;;;;5070644;28;20087;-61
2022/09/17 04:13:17;;;;;;;11.80;1.80;;;;;;;;;;5070779;28;20041;-61
2022/09/17 04:15:44;;;;;;;7.72;1.85;;;;;;;;;;5069907;28;20043;-61
2022/09/17 04:18:10;;;;;;;7.35;1.88;;;;;;;;;;5070645;28;20086;-61
2022/09/17 04:20:36;;;;;;;8.98;1.85;;;;;;;;;;5071072;28;20082;-61
2022/09/17 04:23:02;;;;;;;17.02;1.67;;;;;;;;;;5071131;28;20406;-61
2022/09/17 04:25:28;;;;;;;13.82;1.70;;;;;;;;;;5069866;28;20082;-61
2022/09/17 04:27:54;;;;;;;11.23;1.73;;;;;;;;;;5070140;28;20032;-61
2022/09/17 04:30:20;;;;;;;12.65;2.28;;;;;;;;;;5070927;28;20463;-61
2022/09/17 04:32:46;;;;;;;18.23;2.45;;;;;;;;;;5070782;28;20168;-61
2022/09/17 04:35:12;;;;;;;11.30;1.48;;;;;;;;;;5070271;28;20040;-61
2022/09/17 04:37:38;;;;;;;12.80;1.70;;;;;;;;;;5070627;28;20040;-61
2022/09/17 04:40:05;;;;;;;16.13;2.30;;;;;;;;;;5070767;28;20764;-61
2022/09/17 04:42:31;;;;;;;14.40;2.03;;;;;;;;;;5070417;28;20044;-61
2022/09/17 04:44:57;;;;;;;12.25;2.10;;;;;;;;;;5070712;28;20471;-61
2022/09/17 04:47:23;;;;;;;11.57;1.85;;;;;;;;;;5070651;28;20040;-61
2022/09/17 04:49:50;;;;;;;10.98;1.60;;;;;;;;;;5068924;28;20048;-61
2022/09/17 04:52:16;;;;;;;12.18;1.73;;;;;;;;;;5070706;28;20554;-61
2022/09/17 04:54:42;;;;;;;9.40;1.63;;;;;;;;;;5070474;28;20384;-61
2022/09/17 04:57:08;;;;;;;9.80;1.65;;;;;;;;;;5068553;28;20090;-61
2022/09/17 04:59:34;;;;;;;16.45;2.33;;;;;;;;;;5070575;28;20047;-61
2022/09/17 05:02:00;;;;;;;9.43;1.50;;;;;;;;;;5070480;28;20049;-61
2022/09/17 05:04:26;;;;;;;12.13;2.08;;;;;;;;;;5069921;28;20048;-61
2022/09/17 05:06:52;;;;;;;17.50;1.88;;;;;;;;;;5070361;28;20040;-61
2022/09/17 05:09:18;;;;;;;21.88;2.17;;;;;;;;;;5070172;28;20059;-61
2022/09/17 05:11:44;;;;;;;12.02;1.75;;;;;;;;;;5070003;28;20123;-61
2022/09/17 05:14:12;;;;;;;17.95;2.15;;;;;;;;;;5070517;28;20478;-61
2022/09/17 05:16:39;;;;;;;11.32;1.63;;;;;;;;;;5070434;28;20037;-61
2022/09/17 05:19:05;;;;;;;6.60;1.20;;;;;;;;;;5070032;28;20590;-61
2022/09/17 05:21:31;;;;;;;11.18;1.58;;;;;;;;;;5070264;28;20410;-61
2022/09/17 05:23:57;;;;;;;13.60;1.70;;;;;;;;;;5070029;28;20093;-61
2022/09/17 05:26:23;;;;;;;10.10;1.50;;;;;;;;;;5069791;28;20040;-61
2022/09/17 05:28:50;;;;;;;9.77;2.30;;;;;;;;;;5069997;28;20317;-61
2022/09/17 05:31:16;;;;;;;17.73;2.08;;;;;;;;;;5070382;28;20185;-61
2022/09/17 05:33:42;;;;;;;10.15;1.95;;;;;;;;;;5069748;28;20087;-61
2022/09/17 05:36:08;;;;;;;12.30;2.25;;;;;;;;;;5070337;28;20045;-61
2022/09/17 05:38:34;;;;;;;10.15;1.10;;;;;;;;;;5072905;28;20242;-61
2022/09/17 05:41:03;;;;;;;11.52;1.90;;;;;;;;;;5073104;28;20047;-61
2022/09/17 05:43:29;;;;;;;8.07;1.35;;;;;;;;;;5074042;28;20101;-61
2022/09/17 05:45:56;;;;;;;5.28;1.10;;;;;;;;;;5073893;28;20457;-61
2022/09/17 05:48:22;;;;;;;11.23;1.80;;;;;;;;;;5073353;28;20512;-61
2022/09/17 05:50:48;;;;;;;12.07;2.42;;;;;;;;;;5073882;28;20433;-61
2022/09/17 05:53:14;;;;;;;9.45;1.35;;;;;;;;;;5073704;28;20037;-61
2022/09/17 05:55:41;;;;;;;9.48;1.40;;;;;;;;;;5073313;28;20037;-61
2022/09/17 05:58:11;;;;;;;16.30;2.13;;;;;;;;;;5073416;28;20040;-61
2022/09/17 06:00:37;;;;;;;8.40;1.45;;;;;;;;;;5073311;28;20043;-61
2022/09/17 06:03:03;;;;;;;8.73;1.42;;;;;;;;;;5072933;28;20033;-61
2022/09/17 06:05:29;;;;;;;11.85;1.50;;;;;;;;;;5073210;28;20043;-61
2022/09/17 06:07:55;;;;;;;10.27;1.40;;;;;;;;;;5073439;28;20108;-61
2022/09/17 06:10:21;;;;;;;9.88;1.70;;;;;;;;;;5072574;28;20056;-61
2022/09/17 06:12:47;;;;;;;10.40;1.38;;;;;;;;;;5073250;28;20374;-61
2022/09/17 06:15:13;;;;;;;9.80;1.95;;;;;;;;;;5073245;28;20524;-61
2022/09/17 06:17:39;;;;;;;13.27;1.92;;;;;;;;;;5071460;28;20044;-61
2022/09/17 06:20:06;;;;;;;10.07;1.67;;;;;;;;;;5073198;28;20059;-61
2022/09/17 06:22:32;;;;;;;5.63;1.58;;;;;;;;;;5073231;28;20040;-61
2022/09/17 06:25:02;;;;;;;12.40;1.63;;;;;;;;;;5072718;28;20036;-61
2022/09/17 06:27:32;;;;;;;9.02;1.60;;;;;;;;;;5052776;28;20381;-61
2022/09/17 06:29:58;;;;;;;8.80;1.65;;;;;;;;;;5052900;28;20044;-61
2022/09/17 06:32:24;;;;;;;13.23;1.50;;;;;;;;;;5052058;28;20077;-61
2022/09/17 06:34:50;;;;;;;7.35;1.00;;;;;;;;;;5052991;28;20353;-61
2022/09/17 06:37:16;;;;;;;9.38;1.80;;;;;;;;;;5052838;28;20066;-61
2022/09/17 06:39:42;;;;;;;10.60;1.77;;;;;;;;;;5052438;28;20082;-61
2022/09/17 06:42:09;;;;;;;10.30;1.50;;;;;;;;;;5052865;28;20513;-61
2022/09/17 06:44:35;;;;;;;12.23;2.00;;;;;;;;;;5051586;28;20041;-61
2022/09/17 06:47:01;;;;;;;9.95;1.33;;;;;;;;;;5052083;28;20399;-61
2022/09/17 06:49:29;;;;;;;12.30;2.95;;;;;;;;;;5051476;28;20047;-61
2022/09/17 06:51:55;;;;;;;8.38;1.30;;;;;;;;;;5052550;28;20353;-61
2022/09/17 06:54:21;;;;;;;11.30;1.60;;;;;;;;;;5052051;28;20037;-61
2022/09/17 06:56:47;;;;;;;10.07;1.23;;;;;;;;;;5052389;28;20103;-61
2022/09/17 06:59:13;;;;;;;5.22;1.30;;;;;;;;;;5052555;28;20094;-61
2022/09/17 07:01:39;;;;;;;10.32;1.73;;;;;;;;;;5052101;28;20088;-61
2022/09/17 07:04:05;;;;;;;12.43;1.45;;;;;;;;;;5063700;28;20123;-61
2022/09/17 07:06:31;;;;;;;10.90;1.88;;;;;;;;;;5072299;28;20040;-61
2022/09/17 07:08:58;;;;;;;9.52;1.02;;;;;;;;;;5071509;28;20416;-61
2022/09/17 07:11:24;;;;;;;9.27;2.00;;;;;;;;;;5072257;28;20094;-61
2022/09/17 07:13:50;;;;;;;7.07;1.00;;;;;;;;;;5072293;28;20133;-61
2022/09/17 07:16:16;;;;;;;10.70;1.50;;;;;;;;;;5071863;28;20045;-61
2022/09/17 07:18:42;;;;;;;9.40;1.27;;;;;;;;;;5071946;28;20124;-61
2022/09/17 07:21:09;;;;;;;5.00;1.00;;;;;;;;;;5072077;28;20374;-61
2022/09/17 07:23:36;;;;;;;9.05;2.00;;;;;;;;;;5071666;28;20044;-61
2022/09/17 07:26:22;;;;;;;8.25;1.50;;;;;;;;;;5071893;28;20486;-61
2022/09/17 07:28:48;;;;;;;9.70;1.35;;;;;;;;;;5071526;28;20053;-61
2022/09/17 07:31:14;;;;;;;7.03;0.85;;;;;;;;;;5071485;28;20090;-61
2022/09/17 07:33:41;;;;;;;10.50;1.17;;;;;;;;;;5071536;28;20093;-61
2022/09/17 07:36:09;;;;;;;9.90;1.55;;;;;;;;;;5071769;28;20040;-61
2022/09/17 07:38:35;;;;;;;6.70;1.05;;;;;;;;;;5070835;28;20093;-61
2022/09/17 07:41:12;;;;;;;8.75;1.35;;;;;;;;;;5071710;28;20036;-61
2022/09/17 07:43:38;;;;;;;6.63;1.25;;;;;;;;;;5071602;28;20044;-61
2022/09/17 07:46:05;;;;;;;7.55;0.93;;;;;;;;;;5069767;28;20041;-61
2022/09/17 07:48:31;;;;;;;6.80;1.30;;;;;;;;;;5071386;28;20047;-61
2022/09/17 07:50:57;;;;;;;10.95;1.48;;;;;;;;;;5071612;28;20082;-61
2022/09/17 07:53:24;;;;;;;7.63;1.20;;;;;;;;;;5070999;28;20395;-61
2022/09/17 07:55:59;;;;;;;9.85;1.00;;;;;;;;;;5071416;28;20036;-60
2022/09/17 07:58:34;;;;;;;3.80;0.77;;;;;;;;;;5071160;28;20036;-61
2022/09/17 08:01:05;;;;;;;5.63;0.95;;;;;;;;;;5070699;28;20040;-61
2022/09/17 08:03:32;;;;;;;8.65;0.90;;;;;;;;;;5069830;28;20051;-61
2022/09/17 08:06:08;;;;;;;4.05;0.90;;;;;;;;;;5071127;28;20043;-61
2022/09/17 08:08:35;;;;;;;4.82;0.95;;;;;;;;;;5068932;28;20052;-61
2022/09/17 08:11:08;;;;;;;9.13;1.55;;;;;;;;;;5071263;28;20506;-61
2022/09/17 08:13:35;;;;;;;9.82;1.50;;;;;;;;;;5070838;28;20043;-61
2022/09/17 08:16:01;;;;;;;8.90;0.95;;;;;;;;;;5070717;28;20043;-61
2022/09/17 08:18:28;;;;;;;8.13;0.85;;;;;;;;;;5069354;28;20169;-61
2022/09/17 08:21:02;;;;;;;6.38;0.98;;;;;;;;;;5070945;28;20051;-61
2022/09/17 08:23:28;;;;;;;6.47;1.00;;;;;;;;;;5070628;28;20040;-61
2022/09/17 08:26:00;;;;;;;8.00;1.02;;;;;;;;;;5070855;28;20032;-61
2022/09/17 08:28:27;;;;;;;3.75;0.93;;;;;;;;;;5070523;28;20043;-61
2022/09/17 08:30:54;;;;;;;5.15;1.05;;;;;;;;;;5070379;28;20071;-61
2022/09/17 08:33:20;;;;;;;6.30;0.90;;;;;;;;;;5070725;28;20039;-61
2022/09/17 08:35:53;;;;;;;6.35;1.20;;;;;;;;;;5070778;28;20068;-61
2022/09/17 08:38:20;;;;;;;5.95;0.88;;;;;;;;;;5070254;28;20433;-61
2022/09/17 08:40:59;;;;;;;7.28;1.25;;;;;;;;;;5070877;28;20051;-61
2022/09/17 08:43:26;;;;;;;4.57;0.80;;;;;;;;;;5070680;28;20442;-61
2022/09/17 08:45:54;;;;;;;6.20;0.95;;;;;;;;;;5070343;28;20094;-61
2022/09/17 08:48:20;;;;;;;8.07;0.82;;;;;;;;;;5070524;28;20407;-61
2022/09/17 08:50:46;;;;;;;7.85;0.93;;;;;;;;;;5070267;28;20044;-61
2022/09/17 08:53:30;;;;;;;6.15;1.00;;;;;;;;;;5070275;28;20475;-61
2022/09/17 08:56:24;;;;;;;3.65;0.60;;;;;;;;;;5070247;28;20090;-61
2022/09/17 08:59:16;;;;;;;4.95;0.80;;;;;;;;;;5069831;28;20049;-61
2022/09/17 09:02:00;;;;;;;3.88;0.77;;;;;;;;;;5069587;28;20523;-61
2022/09/17 09:04:45;;;;;;;6.07;0.75;;;;;;;;;;5070610;28;20124;-61
2022/09/17 09:07:16;;;;;;;2.38;1.38;;;;;;;;;;5069952;28;20036;-61
2022/09/17 09:09:47;;;;;;;8.45;0.88;;;;;;;;;;5070045;28;20060;-61
2022/09/17 09:12:18;;;;;;;6.50;0.93;;;;;;;;;;5071110;28;20044;-61
2022/09/17 09:14:53;;;;;;;9.32;0.75;;;;;;;;;;5074065;28;20167;-61
2022/09/17 09:17:21;;;;;;;5.70;0.75;;;;;;;;;;5074129;28;20125;-61
2022/09/17 09:19:48;;;;;;;5.47;1.17;;;;;;;;;;5074442;28;20044;-61
2022/09/17 09:22:33;;;;;;;10.98;0.80;;;;;;;;;;5073667;28;20044;-61
2022/09/17 09:25:11;;;;;;;6.53;0.77;;;;;;;;;;5073907;28;20045;-62
2022/09/17 09:27:47;;;;;;;5.32;0.90;;;;;;;;;;5054140;28;20098;-61
2022/09/17 09:30:14;;;;;;;4.95;0.98;;;;;;;;;;5053686;28;20146;-61
2022/09/17 09:32:46;;;;;;;10.82;1.00;;;;;;;;;;5053757;28;20041;-61
2022/09/17 09:35:17;;;;;;;7.82;1.15;;;;;;;;;;5054175;28;20044;-61
2022/09/17 09:37:44;;;;;;;4.13;0.68;;;;;;;;;;5053034;28;20044;-61
2022/09/17 09:40:25;;;;;;;10.68;1.15;;;;;;;;;;5053865;28;20105;-61
2022/09/17 09:42:53;;;;;;;5.70;0.68;;;;;;;;;;5053958;28;20048;-61
2022/09/17 09:45:25;;;;;;;6.90;0.98;;;;;;;;;;5053556;28;20037;-62
2022/09/17 09:47:54;;;;;;;10.63;1.10;;;;;;;;;;5053689;28;20180;-61
2022/09/17 09:50:41;;;;;;;6.57;0.80;;;;;;;;;;5053864;28;20064;-61
2022/09/17 09:53:17;;;;;;;5.38;0.70;;;;;;;;;;5053251;28;20041;-61
2022/09/17 09:55:43;;;;;;;5.05;1.42;;;;;;;;;;5053445;28;20037;-61
2022/09/17 09:58:29;;;;;;;4.00;0.70;;;;;;;;;;5053455;28;20060;-61
2022/09/17 10:00:55;;;;;;;4.15;0.70;;;;;;;;;;5053283;28;20116;-61
2022/09/17 10:03:22;;;;;;;6.07;0.50;;;;;;;;;;5058533;28;20643;-61
2022/09/17 10:05:56;;;;;;;6.68;0.82;;;;;;;;;;5073572;28;20050;-62
2022/09/17 10:08:23;;;;;;;4.80;0.73;;;;;;;;;;5073114;28;20082;-61
2022/09/17 10:10:58;;;;;;;6.70;1.35;;;;;;;;;;5073404;28;20052;-61
2022/09/17 10:13:25;;;;;;;4.60;0.93;;;;;;;;;;5073007;28;20132;-61
2022/09/17 10:15:51;;;;;;;6.00;0.90;;;;;;;;;;5073419;28;20043;-61
2022/09/17 10:18:19;;;;;;;4.45;0.93;;;;;;;;;;5072835;28;20483;-61
2022/09/17 10:20:49;;;;;;;7.32;0.80;;;;;;;;;;5072999;28;20086;-61
2022/09/17 10:23:15;;;;;;;4.45;0.95;;;;;;;;;;5072512;28;20195;-61
2022/09/17 10:25:44;;;;;;;8.00;1.10;;;;;;;;;;5072154;28;20109;-61
2022/09/17 10:28:29;;;;;;;4.38;0.80;;;;;;;;;;5072653;28;20174;-61
2022/09/17 10:30:57;;;;;;;7.72;1.00;;;;;;;;;;5072988;28;20044;-61
2022/09/17 10:33:25;;;;;;;7.57;0.73;;;;;;;;;;5072796;28;20660;-61
2022/09/17 10:35:56;;;;;;;3.72;0.80;;;;;;;;;;5072558;28;20079;-61
2022/09/17 10:38:29;;;;;;;7.97;1.45;;;;;;;;;;5072370;28;20460;-61
2022/09/17 10:41:07;;;;;;;1.45;0.52;;;;;;;;;;5072626;28;20470;-61
2022/09/17 10:43:33;;;;;;;4.28;0.80;;;;;;;;;;5072289;28;20045;-61
2022/09/17 10:46:00;;;;;;;5.82;1.15;;;;;;;;;;5072824;28;20142;-61
2022/09/17 10:48:28;;;;;;;6.75;0.80;;;;;;;;;;5072469;28;20086;-61
2022/09/17 10:50:55;;;;;;;5.10;1.13;;;;;;;;;;5072012;28;20051;-61
2022/09/17 10:53:23;;;;;;;6.05;0.90;;;;;;;;;;5072528;28;20140;-61
2022/09/17 10:55:54;;;;;;;4.78;0.90;;;;;;;;;;5072492;28;20424;-61
2022/09/17 10:58:49;;;;;;;10.20;1.10;;;;;;;;;;5071638;28;20032;-61
2022/09/17 11:01:23;;;;;;;7.22;0.85;;;;;;;;;;5071660;28;20051;-61
2022/09/17 11:04:01;;;;;;;9.77;1.55;;;;;;;;;;5072414;28;20075;-61
2022/09/17 11:06:46;;;;;;;7.97;1.63;;;;;;;;;;5071735;28;20094;-61
2022/09/17 11:09:15;;;;;;;8.38;1.30;;;;;;;;;;5071767;28;20096;-61
2022/09/17 11:11:53;;;;;;;10.73;1.30;;;;;;;;;;5071848;28;20033;-61
2022/09/17 11:14:37;;;;;;;11.10;1.65;;;;;;;;;;5071537;28;20070;-61
2022/09/17 11:17:28;;;;;;;6.35;1.15;;;;;;;;;;5071927;28;20067;-61
2022/09/17 11:20:04;;;;;;;9.27;1.40;;;;;;;;;;5071647;28;20043;-61
2022/09/17 11:22:48;;;;;;;3.97;1.10;;;;;;;;;;5072211;28;20090;-61
2022/09/17 11:25:44;;;;;;;6.78;0.90;;;;;;;;;;5070342;28;20124;-61
2022/09/17 11:28:36;;;;;;;7.30;0.80;;;;;;;;;;5070305;28;20067;-61
2022/09/17 11:31:11;;;;;;;8.20;1.27;;;;;;;;;;5070553;28;20052;-61
2022/09/17 11:33:46;;;;;;;9.93;1.00;;;;;;;;;;5071814;28;20037;-61
2022/09/17 11:36:20;;;;;;;6.50;0.80;;;;;;;;;;5070923;28;20457;-61
2022/09/17 11:38:50;;;;;;;8.93;1.10;;;;;;;;;;5071696;28;20032;-61
2022/09/17 11:41:18;;;;;;;8.18;0.93;;;;;;;;;;5071490;28;20040;-61
2022/09/17 11:43:51;;;;;;;6.68;1.35;;;;;;;;;;5071252;28;20036;-61
2022/09/17 11:46:22;;;;;;;9.13;1.48;;;;;;;;;;5071558;28;20354;-61
2022/09/17 11:48:48;;;;;;;6.32;1.08;;;;;;;;;;5071457;28;20040;-61
2022/09/17 11:51:14;;;;;;;4.50;0.65;;;;;;;;;;5071142;28;20051;-61
2022/09/17 11:53:43;;;;;;;5.90;0.90;;;;;;;;;;5071320;28;20037;-61
2022/09/17 11:56:20;;;;;;;5.97;0.95;;;;;;;;;;5071390;28;20044;-61
2022/09/17 11:58:48;;;;;;;4.55;1.10;;;;;;;;;;5070337;28;20037;-61
2022/09/17 12:01:36;;;;;;;5.95;0.90;;;;;;;;;;5069748;28;20552;-61
2022/09/17 12:04:19;;;;;;;6.55;0.85;;;;;;;;;;5070924;28;20394;-61
2022/09/17 12:07:08;;;;;;;8.35;1.35;;;;;;;;;;5070915;28;20129;-61
2022/09/17 12:09:36;;;;;;;7.32;1.45;;;;;;;;;;5069466;28;20064;-61
2022/09/17 12:12:05;;;;;;;6.18;1.40;;;;;;;;;;5070383;28;20052;-61
2022/09/17 12:14:44;;;;;;;4.85;0.80;;;;;;;;;;5071150;28;20438;-61
2022/09/17 12:17:16;;;;;;;9.68;1.23;;;;;;;;;;5070987;28;20467;-62
2022/09/17 12:19:45;;;;;;;7.82;1.17;;;;;;;;;;5070724;28;20050;-61
2022/09/17 12:22:17;;;;;;;7.97;1.30;;;;;;;;;;5071044;28;20432;-61
2022/09/17 12:24:43;;;;;;;10.70;1.60;;;;;;;;;;5071079;28;20386;-61
2022/09/17 12:27:14;;;;;;;8.48;1.67;;;;;;;;;;5070167;28;20055;-61
2022/09/17 12:29:52;;;;;;;10.85;1.52;;;;;;;;;;5070924;28;20123;-61
2022/09/17 12:32:37;;;;;;;7.03;1.50;;;;;;;;;;5070627;28;20047;-61
2022/09/17 12:35:03;;;;;;;9.55;1.40;;;;;;;;;;5070573;28;20436;-61
2022/09/17 12:37:32;;;;;;;9.55;1.60;;;;;;;;;;5070712;28;20036;-61
2022/09/17 12:40:04;;;;;;;11.25;1.33;;;;;;;;;;5070813;28;20040;-62
2022/09/17 12:42:41;;;;;;;10.32;1.80;;;;;;;;;;5070419;28;20040;-62
2022/09/17 12:45:16;;;;;;;12.30;2.00;;;;;;;;;;5069188;28;20063;-62
2022/09/17 12:47:54;;;;;;;11.38;1.58;;;;;;;;;;5069879;28;20039;-62
2022/09/17 12:50:36;;;;;;;12.43;1.67;;;;;;;;;;5070317;28;20080;-61
2022/09/17 12:53:31;;;;;;;14.55;1.50;;;;;;;;;;5070680;28;20041;-62
2022/09/17 12:56:02;;;;;;;8.27;1.63;;;;;;;;;;5069774;28;20055;-62
2022/09/17 12:58:34;;;;;;;9.63;1.85;;;;;;;;;;5069717;28;20032;-61
2022/09/17 13:01:10;;;;;;;11.85;1.48;;;;;;;;;;5070628;28;20622;-61
2022/09/17 13:03:39;;;;;;;8.57;1.30;;;;;;;;;;5070279;28;20048;-61
2022/09/17 13:06:12;;;;;;;10.38;1.30;;;;;;;;;;5070208;28;20051;-61
2022/09/17 13:08:38;;;;;;;10.25;1.58;;;;;;;;;;5070274;28;20055;-62
2022/09/17 13:11:05;;;;;;;7.95;1.60;;;;;;;;;;5070181;28;20044;-62
2022/09/17 13:13:31;;;;;;;11.30;2.10;;;;;;;;;;5070372;28;20063;-61
2022/09/17 13:16:09;;;;;;;13.70;2.05;;;;;;;;;;5070414;28;20037;-62
2022/09/17 13:18:54;;;;;;;9.38;2.08;;;;;;;;;;5069929;28;20123;-62
2022/09/17 13:21:23;;;;;;;14.00;2.17;;;;;;;;;;5070400;28;20045;-62
2022/09/17 13:23:51;;;;;;;13.65;2.03;;;;;;;;;;5069953;28;20066;-62
2022/09/17 13:26:18;;;;;;;13.25;1.98;;;;;;;;;;5069731;28;20052;-62
2022/09/17 13:28:49;;;;;;;11.23;2.40;;;;;;;;;;5070354;28;20481;-62
2022/09/17 13:31:22;;;;;;;7.15;1.70;;;;;;;;;;5070414;28;20108;-62
2022/09/17 13:33:49;;;;;;;10.25;1.63;;;;;;;;;;5069939;28;20044;-62
2022/09/17 13:36:34;;;;;;;10.77;1.70;;;;;;;;;;5070428;28;20028;-62
2022/09/17 13:39:01;;;;;;;10.63;1.90;;;;;;;;;;5069932;28;20036;-62
2022/09/17 13:41:29;;;;;;;9.93;1.92;;;;;;;;;;5069789;28;20035;-62
2022/09/17 13:43:56;;;;;;;6.97;1.50;;;;;;;;;;5070233;28;20047;-62
2022/09/17 13:46:23;;;;;;;11.20;1.52;;;;;;;;;;5069719;28;20051;-62
2022/09/17 13:48:51;;;;;;;8.30;1.70;;;;;;;;;;5069553;28;20053;-62
2022/09/17 13:51:30;;;;;;;6.97;1.10;;;;;;;;;;5070138;28;20630;-62
2022/09/17 13:54:07;;;;;;;10.80;1.45;;;;;;;;;;5070135;28;20048;-62
2022/09/17 13:56:33;;;;;;;8.43;1.38;;;;;;;;;;5069677;28;20037;-62
2022/09/17 13:59:09;;;;;;;11.30;2.13;;;;;;;;;;5071627;28;20040;-62
2022/09/17 14:01:59;;;;;;;11.18;1.58;;;;;;;;;;5073694;28;20123;-62
2022/09/17 14:04:33;;;;;;;10.73;1.85;;;;;;;;;;5072278;28;20087;-62
2022/09/17 14:06:59;;;;;;;7.80;1.48;;;;;;;;;;5073408;28;20467;-62
2022/09/17 14:09:33;;;;;;;9.75;1.60;;;;;;;;;;5073027;28;20084;-62
2022/09/17 14:11:59;;;;;;;9.43;1.50;;;;;;;;;;5072922;28;20052;-62
2022/09/17 14:14:27;;;;;;;8.93;1.80;;;;;;;;;;5073060;28;20092;-62
2022/09/17 14:16:54;;;;;;;8.50;1.75;;;;;;;;;;5073150;28;20037;-61
2022/09/17 14:19:39;;;;;;;12.18;1.70;;;;;;;;;;5072509;28;20047;-61
2022/09/17 14:22:05;;;;;;;12.35;1.95;;;;;;;;;;5073188;28;20048;-62
2022/09/17 14:24:43;;;;;;;11.85;1.88;;;;;;;;;;5073086;28;20078;-62
2022/09/17 14:27:14;;;;;;;11.02;1.60;;;;;;;;;;5072524;28;20375;-62
2022/09/17 14:29:45;;;;;;;8.20;1.40;;;;;;;;;;5073151;28;20076;-62
2022/09/17 14:32:32;;;;;;;8.97;1.83;;;;;;;;;;5072984;28;20090;-61
2022/09/17 14:35:13;;;;;;;6.13;1.00;;;;;;;;;;5072655;28;20305;-62
2022/09/17 14:37:41;;;;;;;7.20;1.15;;;;;;;;;;5072351;28;20040;-62
2022/09/17 14:40:09;;;;;;;5.65;1.13;;;;;;;;;;5072615;28;20128;-61
2022/09/17 14:42:36;;;;;;;6.40;1.10;;;;;;;;;;5072649;28;20041;-62
2022/09/17 14:45:06;;;;;;;8.75;0.98;;;;;;;;;;5072514;28;20051;-62
2022/09/17 14:47:32;;;;;;;6.85;0.90;;;;;;;;;;5071901;28;20048;-62
2022/09/17 14:50:18;;;;;;;6.20;0.93;;;;;;;;;;5072592;28;20115;-61
2022/09/17 14:52:48;;;;;;;4.95;0.75;;;;;;;;;;5071513;28;20648;-61
2022/09/17 14:55:21;;;;;;;8.73;1.10;;;;;;;;;;5071961;28;20045;-62